This demonstration page uses our WeatherBlox Daily Observations layout. Learn more.

38.89511, -77.03637

Hourly Observations for July 30, 2019

Temp ( °F °C ) Dew Point ( °F °C ) Humidity (%) Winds ( mph kmh ) Pressure ( in mb ) Visibility ( mi km ) Precip ( " mm )
12:52 am 00:52 Partly Cloudy 81 27.2 71 21.7 72 72 S 8 13 29.97 1015 10 16.09344 0 0
1:52 am 01:52 Mostly Clear 80 26.7 69 20.6 69 69 S 9 15 29.97 1015 10 16.09344 0 0
2:52 am 02:52 Partly Cloudy 79 26.1 69 20.6 72 72 S 8 13 29.97 1015 10 16.09344 0 0
3:52 am 03:52 Partly Cloudy 79 26.1 70 21.1 74 74 S 12 19 29.97 1015 10 16.09344 0 0
4:52 am 04:52 Partly Cloudy 78 25.6 68 20 71 71 S 13 20 29.97 1015 10 16.09344 0 0
5:52 am 05:52 Mostly Clear 77 25 69 20.6 77 77 S 8 13 30 1016 10 16.09344 0 0
6:52 am 06:52 Mostly Sunny 76 24.4 69 20.6 79 79 SSW 5 7 30 1016 10 16.09344 0 0
7:52 am 07:52 Sunny 79 26.1 67 19.4 67 67 SW 8 13 30 1016 10 16.09344 0 0
8:52 am 08:52 Sunny 81 27.2 68 20 65 65 S 8 13 30 1016 10 16.09344 0 0
9:52 am 09:52 Sunny 83 28.3 70 21.1 65 65 S 9 15 30 1016 10 16.09344 0 0
10:52 am 10:52 Sunny 85 29.4 71 21.7 63 63 SSE 10 17 30 1016 10 16.09344 0 0
11:52 am 11:52 Sunny 89 31.7 71 21.7 55 55 SSE 9 15 30 1016 10 16.09344 0 0
12:52 pm 12:52 Mostly Sunny 92 33.3 69 20.6 47 47 SSE 13 20 30 1016 10 16.09344 0 0
1:52 pm 13:52 Mostly Sunny 94 34.4 68 20 43 43 S 13 20 29.97 1015 10 16.09344 0 0
2:52 pm 14:52 Mostly Sunny 95 35 65 18.3 37 37 S 15 24 29.94 1014 10 16.09344 0 0
3:52 pm 15:52 Partly Cloudy 95 35 65 18.3 37 37 S 14 22 29.94 1014 10 16.09344 0 0
4:52 pm 16:52 Partly Cloudy 94 34.4 64 17.8 37 37 S 14 22 29.91 1013 10 16.09344 0 0
5:52 pm 17:52 Partly Cloudy 91 32.8 65 18.3 42 42 S 12 19 29.91 1013 10 16.09344 0 0
6:52 pm 18:52 Mostly Cloudy 90 32.2 63 17.2 41 41 SSE 12 19 29.94 1014 10 16.09344 0 0
7:52 pm 19:52 Mostly Cloudy 87 30.6 65 18.3 48 48 NNW 12 19 29.94 1014 10 16.09344 0 0
8:52 pm 20:52 Mostly Cloudy 84 28.9 66 18.9 55 55 N 8 13 29.97 1015 10 16.09344 0 0
9:52 pm 21:52 Mostly Cloudy 82 27.8 66 18.9 58 58 NW 10 17 30 1016 10 16.09344 0 0
10:52 pm 22:52 Mostly Cloudy 82 27.8 66 18.9 58 58 WSW 6 9 30 1016 10 16.09344 0 0
11:52 pm 23:52 Mostly Cloudy 81 27.2 64 17.8 57 57 W 9 15 30 1016 10 16.09344 0 0

Powered by AerisWeather